Time;durP1;ratioP1;P1;durP2;ratioP2;P2;SDS_P1;SDS_P2;PMS_P1;PMS_P2;Temp;Humidity;BMP_temperature;BMP_pressure;BME280_temperature;BME280_humidity;BME280_pressure;Samples;Min_cycle;Max_cycle;Signal;HPM_P1;HPM_P2
2021/07/12 00:01:39;;;;;;;2.80;2.30;;;21.00;73.80;;;;;;5075243;28;20470;-74
2021/07/12 00:04:05;;;;;;;5.30;2.60;;;20.90;73.50;;;;;;5075071;28;20464;-74
2021/07/12 00:06:32;;;;;;;3.10;2.80;;;20.80;73.20;;;;;;5075396;28;20490;-74
2021/07/12 00:09:00;;;;;;;5.30;2.53;;;20.80;73.70;;;;;;5075140;28;20441;-74
2021/07/12 00:11:28;;;;;;;4.73;2.63;;;20.70;74.10;;;;;;5074981;28;20477;-74
2021/07/12 00:13:56;;;;;;;3.17;2.10;;;20.70;74.40;;;;;;5074912;28;20465;-74
2021/07/12 00:16:23;;;;;;;3.60;2.50;;;20.70;74.40;;;;;;5074657;28;20441;-74
2021/07/12 00:18:50;;;;;;;8.00;2.53;;;20.70;74.40;;;;;;5074966;28;20502;-74
2021/07/12 00:21:17;;;;;;;5.50;3.13;;;20.60;74.40;;;;;;5074852;28;20448;-74
2021/07/12 00:23:44;;;;;;;3.30;2.37;;;20.60;75.30;;;;;;5074411;28;21030;-74
2021/07/12 00:26:11;;;;;;;2.63;2.43;;;20.60;74.50;;;;;;5074882;28;20766;-74
2021/07/12 00:28:37;;;;;;;3.30;2.50;;;20.60;74.50;;;;;;5074668;28;20445;-74
2021/07/12 00:31:06;;;;;;;7.03;2.40;;;20.60;74.60;;;;;;5074560;28;20472;-74
2021/07/12 00:33:33;;;;;;;5.00;3.10;;;20.60;74.80;;;;;;5074534;28;20467;-74
2021/07/12 00:36:00;;;;;;;4.20;2.60;;;20.60;74.90;;;;;;5074278;28;20446;-74
2021/07/12 00:38:27;;;;;;;3.37;2.50;;;20.50;75.00;;;;;;5074462;28;20448;-74
2021/07/12 00:40:54;;;;;;;3.60;2.97;;;20.50;75.10;;;;;;5074414;28;20502;-74
2021/07/12 00:43:20;;;;;;;4.80;2.83;;;20.50;75.10;;;;;;5074358;28;20869;-74
2021/07/12 00:45:48;;;;;;;5.00;3.23;;;20.50;75.20;;;;;;5074061;28;20441;-74
2021/07/12 00:48:16;;;;;;;5.27;2.27;;;20.40;75.10;;;;;;5074297;28;20453;-74
2021/07/12 00:50:45;;;;;;;2.23;2.13;;;20.40;75.20;;;;;;5073903;28;20942;-74
2021/07/12 00:53:12;;;;;;;5.20;2.63;;;20.40;75.40;;;;;;5074165;28;20472;-74
2021/07/12 00:55:42;;;;;;;4.93;2.57;;;20.30;75.50;;;;;;5074184;28;20448;-74
2021/07/12 00:58:10;;;;;;;2.70;2.50;;;20.40;76.00;;;;;;5073825;28;20448;-74
2021/07/12 01:00:39;;;;;;;4.23;2.87;;;20.30;76.10;;;;;;5073991;28;20411;-74
2021/07/12 01:03:07;;;;;;;2.60;2.40;;;20.30;76.10;;;;;;5074060;28;20514;-74
2021/07/12 01:05:36;;;;;;;5.00;2.50;;;20.30;76.30;;;;;;5073661;28;20946;-74
2021/07/12 01:08:03;;;;;;;3.27;2.17;;;20.30;76.50;;;;;;5073940;28;20441;-74
2021/07/12 01:10:30;;;;;;;4.83;2.77;;;20.20;76.40;;;;;;5073834;28;20444;-74
2021/07/12 01:13:15;;;;;;;8.17;2.90;;;20.20;76.40;;;;;;5074037;28;20515;-74
2021/07/12 01:15:50;;;;;;;5.57;2.10;;;20.20;76.40;;;;;;5073896;28;20787;-74
2021/07/12 01:18:24;;;;;;;5.73;2.80;;;20.10;77.10;;;;;;5073791;28;20429;-74
2021/07/12 01:21:40;;;;;;;6.10;2.50;;;20.10;76.30;;;;;;5073821;28;20432;-74
2021/07/12 01:24:30;;;;;;;3.03;2.73;;;20.10;76.40;;;;;;5073702;28;20467;-74
2021/07/12 01:27:18;;;;;;;5.70;2.80;;;20.10;76.60;;;;;;5073784;28;20448;-74
2021/07/12 01:30:02;;;;;;;7.60;2.80;;;20.00;76.80;;;;;;5073704;28;20431;-74
2021/07/12 01:32:50;;;;;;;5.70;3.10;;;20.00;77.10;;;;;;5073698;28;20471;-74
2021/07/12 01:35:23;;;;;;;4.57;3.00;;;20.00;77.40;;;;;;5073645;28;20444;-74
2021/07/12 01:38:02;;;;;;;5.53;3.40;;;20.00;77.50;;;;;;5073624;28;20432;-74
2021/07/12 01:40:37;;;;;;;4.27;3.00;;;20.00;77.70;;;;;;5074145;28;20424;-74
2021/07/12 01:43:13;;;;;;;4.07;3.53;;;20.00;78.00;;;;;;5073523;28;20467;-74
2021/07/12 01:45:51;;;;;;;3.00;2.80;;;19.90;78.20;;;;;;5073612;28;20833;-74
2021/07/12 01:48:27;;;;;;;5.00;2.67;;;19.90;78.30;;;;;;5074503;28;20429;-74
2021/07/12 01:50:57;;;;;;;5.93;3.10;;;19.90;78.50;;;;;;5073256;28;20456;-74
2021/07/12 01:53:31;;;;;;;13.90;3.70;;;19.90;78.30;;;;;;5073058;28;20966;-74
2021/07/12 01:56:03;;;;;;;8.43;3.40;;;19.80;77.90;;;;;;5072970;28;20510;-74
2021/07/12 01:58:34;;;;;;;6.53;2.70;;;19.70;77.80;;;;;;5073257;28;20433;-74
2021/07/12 02:01:01;;;;;;;9.90;3.17;;;19.60;77.60;;;;;;5073068;28;20792;-74
2021/07/12 02:03:31;;;;;;;6.53;3.13;;;19.60;78.20;;;;;;5073265;28;20460;-74
2021/07/12 02:06:00;;;;;;;6.03;2.90;;;19.50;78.90;;;;;;5073365;28;20436;-74
2021/07/12 02:08:27;;;;;;;5.67;2.60;;;19.50;79.30;;;;;;5073251;28;20451;-74
2021/07/12 02:10:57;;;;;;;7.43;3.37;;;19.50;80.00;;;;;;5073171;28;20448;-74
2021/07/12 02:13:24;;;;;;;6.20;3.20;;;19.50;79.10;;;;;;5073147;28;20468;-74
2021/07/12 02:15:55;;;;;;;8.20;3.07;;;19.50;79.00;;;;;;5073151;28;20804;-74
2021/07/12 02:18:24;;;;;;;8.70;3.27;;;19.50;78.90;;;;;;5073205;28;20435;-74
2021/07/12 02:20:55;;;;;;;4.13;2.80;;;19.50;78.80;;;;;;5073161;28;20444;-74
2021/07/12 02:23:23;;;;;;;8.37;3.30;;;19.50;78.60;;;;;;5073096;28;20487;-73
2021/07/12 02:25:51;;;;;;;6.00;2.90;;;19.40;78.70;;;;;;5073088;28;20448;-74
2021/07/12 02:28:20;;;;;;;4.23;2.80;;;19.40;78.70;;;;;;5073083;28;20448;-74
2021/07/12 02:30:47;;;;;;;6.73;3.07;;;19.40;78.80;;;;;;5073091;28;20452;-74
2021/07/12 02:33:15;;;;;;;6.30;3.10;;;19.40;79.00;;;;;;5072622;28;20463;-74
2021/07/12 02:35:42;;;;;;;4.33;2.57;;;19.40;79.10;;;;;;5072993;28;20786;-74
2021/07/12 02:38:11;;;;;;;9.33;2.87;;;19.40;79.10;;;;;;5072952;28;20436;-74
2021/07/12 02:40:39;;;;;;;3.20;2.70;;;19.40;79.10;;;;;;5072645;28;20930;-74
2021/07/12 02:43:07;;;;;;;7.20;3.10;;;19.40;79.20;;;;;;5072833;28;20456;-74
2021/07/12 02:45:37;;;;;;;8.80;4.07;;;19.40;79.40;;;;;;5072908;28;20440;-74
2021/07/12 02:48:04;;;;;;;4.70;3.83;;;19.40;79.40;;;;;;5073182;28;20448;-74
2021/07/12 02:50:31;;;;;;;3.57;3.20;;;19.40;79.60;;;;;;5072714;28;20464;-74
2021/07/12 02:53:03;;;;;;;5.57;3.47;;;19.40;79.70;;;;;;5072708;28;20506;-74
2021/07/12 02:55:31;;;;;;;3.50;3.20;;;19.40;79.70;;;;;;5072832;28;20425;-74
2021/07/12 02:57:58;;;;;;;4.17;3.50;;;19.40;79.70;;;;;;5072757;28;20448;-74
2021/07/12 03:00:25;;;;;;;3.93;3.33;;;19.40;79.80;;;;;;5072431;28;20815;-74
2021/07/12 03:02:51;;;;;;;6.77;3.40;;;19.40;79.80;;;;;;5072691;28;20441;-74
2021/07/12 03:05:18;;;;;;;3.60;3.10;;;19.30;79.80;;;;;;5072992;28;20448;-74
2021/07/12 03:07:48;;;;;;;5.13;3.67;;;19.30;80.10;;;;;;5073267;28;20915;-74
2021/07/12 03:10:18;;;;;;;6.97;3.90;;;19.30;80.00;;;;;;5076197;28;20440;-74
2021/07/12 03:12:49;;;;;;;5.50;3.77;;;19.30;80.10;;;;;;5076022;28;20472;-74
2021/07/12 03:15:18;;;;;;;5.30;3.90;;;19.30;80.30;;;;;;5076207;28;20428;-74
2021/07/12 03:17:48;;;;;;;5.90;3.73;;;19.30;80.40;;;;;;5076058;28;20452;-74
2021/07/12 03:20:16;;;;;;;8.77;4.33;;;19.30;80.60;;;;;;5076064;28;20452;-74
2021/07/12 03:22:43;;;;;;;6.03;4.70;;;19.30;80.70;;;;;;5076019;28;20513;-74
2021/07/12 03:25:13;;;;;;;6.33;5.73;;;19.30;80.70;;;;;;5075997;28;20452;-74
2021/07/12 03:27:40;;;;;;;6.57;5.73;;;19.30;81.20;;;;;;5075627;28;20444;-74
2021/07/12 03:30:11;;;;;;;7.03;5.70;;;19.30;82.00;;;;;;5075872;28;20440;-74
2021/07/12 03:32:39;;;;;;;6.87;6.23;;;19.30;82.50;;;;;;5075806;28;20496;-74
2021/07/12 03:35:06;;;;;;;10.53;7.33;;;19.30;82.90;;;;;;5075728;28;20468;-74
2021/07/12 03:37:35;;;;;;;8.20;6.47;;;19.30;83.30;;;;;;5075778;28;20444;-74
2021/07/12 03:40:02;;;;;;;9.37;7.07;;;19.30;83.50;;;;;;5075386;28;20934;-73
2021/07/12 03:42:29;;;;;;;7.63;6.53;;;19.30;83.40;;;;;;5075685;28;20440;-74
2021/07/12 03:44:56;;;;;;;9.73;6.53;;;19.30;83.60;;;;;;5075537;28;20460;-74
2021/07/12 03:47:32;;;;;;;5.90;5.40;;;19.30;83.80;;;;;;5075557;28;20449;-74
2021/07/12 03:50:10;;;;;;;6.93;5.63;;;19.30;83.80;;;;;;5075402;28;20463;-74
2021/07/12 03:52:44;;;;;;;7.73;6.50;;;19.30;83.80;;;;;;5075458;28;20512;-74
2021/07/12 03:55:12;;;;;;;11.47;6.40;;;19.30;83.80;;;;;;5075519;28;20798;-74
2021/07/12 03:57:39;;;;;;;11.73;7.10;;;19.40;83.80;;;;;;5075644;28;20444;-73
2021/07/12 04:00:09;;;;;;;8.43;6.27;;;19.40;83.80;;;;;;5075388;28;20813;-74
2021/07/12 04:02:38;;;;;;;8.90;5.63;;;19.40;83.50;;;;;;5075310;28;20804;-73
2021/07/12 04:05:05;;;;;;;6.17;5.57;;;19.40;83.20;;;;;;5075202;28;20564;-74
2021/07/12 04:07:32;;;;;;;8.83;6.93;;;19.40;83.00;;;;;;5074974;28;20444;-74
2021/07/12 04:09:59;;;;;;;8.00;6.37;;;19.40;83.70;;;;;;5075197;28;20429;-74
2021/07/12 04:12:26;;;;;;;7.83;6.60;;;19.50;83.10;;;;;;5074692;28;21015;-73
2021/07/12 04:14:54;;;;;;;10.83;7.07;;;19.50;83.00;;;;;;5074816;28;20472;-75
2021/07/12 04:17:21;;;;;;;11.27;6.53;;;19.50;83.00;;;;;;5074515;28;20945;-75
2021/07/12 04:19:49;;;;;;;8.43;7.30;;;19.50;83.30;;;;;;5074116;28;20448;-75
2021/07/12 04:22:16;;;;;;;7.70;6.87;;;19.50;83.50;;;;;;5074469;28;20441;-74
2021/07/12 04:24:42;;;;;;;11.83;6.60;;;19.50;83.60;;;;;;5074802;28;20829;-74
2021/07/12 04:27:09;;;;;;;8.37;7.67;;;19.50;83.50;;;;;;5074597;28;20444;-75
2021/07/12 04:29:36;;;;;;;12.10;8.47;;;19.50;83.70;;;;;;5074689;28;20869;-74
2021/07/12 04:32:03;;;;;;;11.10;8.27;;;19.60;83.90;;;;;;5074608;28;20890;-75
2021/07/12 04:34:30;;;;;;;19.37;8.80;;;19.60;84.30;;;;;;5074500;28;21036;-75
2021/07/12 04:36:58;;;;;;;9.20;7.63;;;19.60;84.60;;;;;;5074581;28;20437;-75
2021/07/12 04:39:25;;;;;;;12.90;7.93;;;19.60;84.80;;;;;;5074561;28;20432;-75
2021/07/12 04:41:53;;;;;;;9.80;8.67;;;19.60;84.80;;;;;;5073917;28;20930;-75
2021/07/12 04:44:20;;;;;;;10.53;7.53;;;19.70;84.80;;;;;;5074367;28;20468;-75
2021/07/12 04:46:46;;;;;;;8.53;7.57;;;19.70;84.90;;;;;;5074331;28;20448;-75
2021/07/12 04:49:13;;;;;;;9.57;8.10;;;19.70;85.00;;;;;;5074013;28;20802;-75
2021/07/12 04:51:40;;;;;;;10.93;8.10;;;19.80;85.20;;;;;;5074205;28;20425;-75
2021/07/12 04:54:08;;;;;;;11.07;10.07;;;19.80;85.30;;;;;;5073883;28;20868;-75
2021/07/12 04:56:35;;;;;;;11.23;10.07;;;19.80;85.40;;;;;;5074277;28;20432;-75
2021/07/12 04:59:04;;;;;;;14.83;10.30;;;19.90;85.80;;;;;;5074024;28;20452;-75
2021/07/12 05:01:33;;;;;;;10.67;9.67;;;20.00;85.80;;;;;;5074067;28;20445;-73
2021/07/12 05:04:00;;;;;;;9.40;8.50;;;20.00;85.80;;;;;;5073575;28;20966;-75
2021/07/12 05:06:27;;;;;;;11.80;10.60;;;20.00;85.50;;;;;;5073666;28;20918;-75
2021/07/12 05:08:54;;;;;;;14.40;10.10;;;20.10;85.70;;;;;;5073477;28;20939;-75
2021/07/12 05:11:22;;;;;;;9.90;8.87;;;20.20;85.90;;;;;;5073678;28;20935;-73
2021/07/12 05:13:49;;;;;;;13.10;9.00;;;20.20;85.80;;;;;;5073658;28;20485;-73
2021/07/12 05:16:16;;;;;;;11.50;10.40;;;20.20;85.80;;;;;;5073562;28;20474;-72
2021/07/12 05:18:43;;;;;;;12.03;10.83;;;20.30;85.80;;;;;;5073404;28;20445;-72
2021/07/12 05:21:10;;;;;;;10.20;9.27;;;20.40;85.90;;;;;;5073821;28;20453;-73
2021/07/12 05:23:37;;;;;;;11.77;9.60;;;20.40;85.80;;;;;;5073444;28;20463;-73
2021/07/12 05:26:04;;;;;;;12.40;11.20;;;20.50;85.70;;;;;;5073592;28;20494;-73
2021/07/12 05:28:33;;;;;;;10.53;9.30;;;20.60;85.70;;;;;;5073591;28;20808;-73
2021/07/12 05:31:00;;;;;;;10.00;9.13;;;20.60;85.70;;;;;;5072936;28;20449;-73
2021/07/12 05:33:26;;;;;;;16.60;10.87;;;20.60;85.50;;;;;;5073274;28;20491;-73
2021/07/12 05:35:53;;;;;;;9.20;8.30;;;20.70;85.20;;;;;;5073614;28;20454;-73
2021/07/12 05:38:20;;;;;;;10.23;9.23;;;20.80;84.70;;;;;;5073036;28;20445;-73
2021/07/12 05:40:46;;;;;;;10.87;9.80;;;20.90;84.60;;;;;;5073334;28;20452;-73
2021/07/12 05:43:13;;;;;;;10.30;9.20;;;20.90;84.40;;;;;;5072978;28;20982;-73
2021/07/12 05:45:41;;;;;;;10.03;9.03;;;21.00;84.20;;;;;;5073379;28;20449;-73
2021/07/12 05:48:09;;;;;;;10.93;9.87;;;21.10;84.00;;;;;;5073452;28;20494;-73
2021/07/12 05:50:36;;;;;;;9.70;9.00;;;21.20;83.60;;;;;;5073374;28;20456;-73
2021/07/12 05:53:03;;;;;;;10.60;9.60;;;21.20;83.50;;;;;;5073133;28;20491;-73
2021/07/12 05:55:30;;;;;;;11.70;9.50;;;21.30;83.30;;;;;;5073207;28;20449;-73
2021/07/12 05:57:56;;;;;;;10.03;9.17;;;21.30;83.10;;;;;;5073296;28;20429;-73
2021/07/12 06:00:24;;;;;;;10.47;9.53;;;21.40;82.80;;;;;;5073409;28;20469;-73
2021/07/12 06:02:52;;;;;;;9.73;8.87;;;21.40;82.50;;;;;;5073401;28;20444;-73
2021/07/12 06:05:18;;;;;;;14.30;9.90;;;21.50;82.40;;;;;;5073332;28;20440;-73
2021/07/12 06:07:47;;;;;;;11.67;8.53;;;21.60;81.80;;;;;;5073689;28;20441;-73
2021/07/12 06:10:15;;;;;;;11.10;8.90;;;21.60;81.90;;;;;;5073326;28;20421;-73
2021/07/12 06:12:42;;;;;;;10.97;9.97;;;21.60;81.30;;;;;;5073155;28;20477;-73
2021/07/12 06:15:09;;;;;;;10.67;9.87;;;21.60;81.20;;;;;;5073137;28;20468;-73
2021/07/12 06:17:37;;;;;;;9.20;7.20;;;21.70;81.40;;;;;;5073164;28;20433;-73
2021/07/12 06:20:07;;;;;;;11.93;10.83;;;21.70;81.50;;;;;;5073036;28;20452;-73
2021/07/12 06:22:33;;;;;;;13.57;11.10;;;21.70;81.30;;;;;;5073098;28;20440;-74
2021/07/12 06:25:00;;;;;;;11.70;10.50;;;21.70;81.60;;;;;;5073030;28;20461;-74
2021/07/12 06:27:27;;;;;;;10.90;9.47;;;21.70;81.50;;;;;;5073029;28;20448;-74
2021/07/12 06:29:54;;;;;;;13.37;12.10;;;21.70;81.30;;;;;;5073123;28;20823;-75
2021/07/12 06:32:21;;;;;;;12.20;11.00;;;21.70;80.90;;;;;;5073791;28;20441;-75
2021/07/12 06:34:48;;;;;;;13.50;11.13;;;21.70;81.10;;;;;;5072910;28;20471;-75
2021/07/12 06:37:16;;;;;;;10.90;9.90;;;21.70;81.10;;;;;;5073018;28;20444;-75
2021/07/12 06:39:42;;;;;;;10.17;8.90;;;21.80;81.20;;;;;;5072933;28;20478;-76
2021/07/12 06:42:09;;;;;;;14.90;10.10;;;21.80;80.60;;;;;;5072897;28;20433;-75
2021/07/12 06:44:36;;;;;;;11.50;10.30;;;21.80;80.50;;;;;;5076680;28;20833;-75
2021/07/12 06:47:03;;;;;;;11.97;10.70;;;21.90;80.80;;;;;;5076646;28;20436;-75
2021/07/12 06:49:30;;;;;;;9.73;8.93;;;22.00;80.70;;;;;;5076118;28;20961;-75
2021/07/12 06:51:57;;;;;;;11.80;10.27;;;22.10;80.80;;;;;;5076600;28;20445;-73
2021/07/12 06:54:25;;;;;;;11.23;10.10;;;22.20;80.10;;;;;;5076428;28;20491;-73
2021/07/12 06:56:51;;;;;;;10.97;9.93;;;22.40;79.80;;;;;;5076482;28;20444;-73
2021/07/12 06:59:18;;;;;;;10.73;9.73;;;22.50;79.50;;;;;;5076530;28;20433;-73
2021/07/12 07:01:45;;;;;;;13.57;10.63;;;22.60;78.80;;;;;;5076367;28;20425;-73
2021/07/12 07:04:12;;;;;;;12.43;10.30;;;22.70;78.30;;;;;;5076352;28;20461;-73
2021/07/12 07:06:39;;;;;;;12.33;11.20;;;22.90;77.90;;;;;;5076599;28;20531;-73
2021/07/12 07:09:06;;;;;;;10.63;9.73;;;23.00;77.30;;;;;;5076279;28;20444;-72
2021/07/12 07:11:35;;;;;;;9.70;8.90;;;23.20;77.10;;;;;;5076116;28;20445;-72
2021/07/12 07:14:02;;;;;;;8.40;7.70;;;23.30;76.30;;;;;;5076081;28;20479;-72
2021/07/12 07:16:28;;;;;;;8.37;7.67;;;23.50;75.50;;;;;;5076176;28;20451;-72
2021/07/12 07:18:55;;;;;;;14.43;8.07;;;23.80;74.50;;;;;;5076167;28;20432;-73
2021/07/12 07:21:22;;;;;;;8.90;8.20;;;24.00;73.20;;;;;;5076628;28;20447;-73
2021/07/12 07:23:49;;;;;;;8.00;7.40;;;24.30;72.20;;;;;;5075764;28;20469;-73
2021/07/12 07:26:15;;;;;;;7.80;7.10;;;24.50;71.00;;;;;;5076208;28;20428;-73
2021/07/12 07:28:44;;;;;;;10.33;9.10;;;24.80;69.90;;;;;;5075864;28;20452;-73
2021/07/12 07:31:11;;;;;;;10.80;8.70;;;25.10;69.00;;;;;;5075918;28;20429;-73
2021/07/12 07:33:37;;;;;;;9.10;8.30;;;25.30;68.00;;;;;;5075968;28;20487;-73
2021/07/12 07:36:05;;;;;;;8.10;7.50;;;25.40;66.90;;;;;;5075865;28;20820;-73
2021/07/12 07:38:31;;;;;;;8.07;7.37;;;25.60;66.20;;;;;;5075732;28;20448;-73
2021/07/12 07:40:58;;;;;;;7.70;7.00;;;25.70;65.70;;;;;;5075709;28;20766;-73
2021/07/12 07:43:25;;;;;;;8.13;7.50;;;25.80;64.90;;;;;;5075495;28;20480;-73
2021/07/12 07:45:53;;;;;;;7.43;6.90;;;26.00;64.60;;;;;;5075668;28;20429;-73
2021/07/12 07:48:20;;;;;;;7.93;7.33;;;26.00;63.60;;;;;;5075032;28;20436;-73
2021/07/12 07:50:47;;;;;;;8.33;7.60;;;26.10;63.50;;;;;;5075509;28;20460;-73
2021/07/12 07:53:13;;;;;;;7.87;7.07;;;26.20;63.40;;;;;;5076234;28;20484;-73
2021/07/12 07:55:41;;;;;;;8.57;7.03;;;26.40;63.10;;;;;;5074500;28;20449;-73
2021/07/12 07:58:07;;;;;;;7.30;6.70;;;26.50;62.50;;;;;;5075309;28;20500;-73
2021/07/12 08:00:34;;;;;;;8.40;6.93;;;26.70;62.30;;;;;;5075204;28;20432;-73
2021/07/12 08:03:04;;;;;;;7.47;6.70;;;26.90;61.60;;;;;;5075177;28;20436;-73
2021/07/12 08:05:31;;;;;;;6.83;6.30;;;27.10;60.90;;;;;;5074983;28;20425;-73
2021/07/12 08:07:58;;;;;;;7.00;6.40;;;27.20;59.80;;;;;;5075041;28;20440;-73
2021/07/12 08:10:26;;;;;;;6.83;6.07;;;27.40;59.40;;;;;;5074995;28;20468;-73
2021/07/12 08:12:53;;;;;;;7.50;6.87;;;27.60;59.00;;;;;;5074836;28;20519;-74
2021/07/12 08:15:20;;;;;;;6.40;5.80;;;27.80;58.40;;;;;;5074703;28;20464;-73
2021/07/12 08:17:48;;;;;;;8.70;5.67;;;28.00;58.40;;;;;;5074540;28;20976;-73
2021/07/12 08:20:18;;;;;;;7.50;7.00;;;28.20;58.20;;;;;;5074908;28;20455;-73
2021/07/12 08:22:46;;;;;;;8.50;6.47;;;28.40;57.70;;;;;;5074769;28;20447;-73
2021/07/12 08:25:14;;;;;;;6.57;6.07;;;28.60;56.50;;;;;;5074927;28;20436;-73
2021/07/12 08:27:41;;;;;;;7.73;6.20;;;28.80;55.10;;;;;;5074765;28;20458;-73
2021/07/12 08:30:10;;;;;;;6.50;5.90;;;29.00;55.00;;;;;;5074647;28;20452;-73
2021/07/12 08:32:37;;;;;;;6.10;5.50;;;29.30;54.60;;;;;;5074664;28;20445;-73
2021/07/12 08:35:06;;;;;;;7.50;6.10;;;29.40;54.00;;;;;;5074521;28;20488;-71
2021/07/12 08:37:34;;;;;;;7.27;5.80;;;29.60;53.80;;;;;;5074630;28;20429;-71
2021/07/12 08:40:01;;;;;;;8.20;6.10;;;29.80;53.30;;;;;;5074439;28;20436;-73
2021/07/12 08:42:28;;;;;;;6.50;5.63;;;30.00;52.70;;;;;;5074445;28;20444;-73
2021/07/12 08:44:55;;;;;;;5.77;5.33;;;30.20;52.40;;;;;;5074130;28;20966;-73
2021/07/12 08:47:22;;;;;;;6.50;5.90;;;30.30;51.90;;;;;;5074315;28;20445;-73
2021/07/12 08:49:48;;;;;;;5.70;5.30;;;30.50;51.60;;;;;;5074208;28;20464;-71
2021/07/12 08:52:16;;;;;;;5.20;4.80;;;30.70;51.30;;;;;;5073981;28;20444;-72
2021/07/12 08:54:44;;;;;;;5.67;5.17;;;30.80;50.50;;;;;;5074136;28;20476;-70
2021/07/12 08:57:11;;;;;;;5.97;5.23;;;31.00;49.80;;;;;;5074219;28;20444;-69
2021/07/12 08:59:41;;;;;;;4.77;4.47;;;31.10;49.00;;;;;;5074120;28;20444;-69
2021/07/12 09:02:09;;;;;;;5.17;4.77;;;31.20;48.50;;;;;;5074060;28;20439;-70
2021/07/12 09:04:37;;;;;;;4.50;4.20;;;31.30;47.50;;;;;;5074003;28;20487;-70
2021/07/12 09:07:06;;;;;;;5.70;5.00;;;31.40;47.30;;;;;;5073890;28;20433;-70
2021/07/12 09:09:33;;;;;;;5.23;4.83;;;31.50;47.20;;;;;;5074054;28;20421;-69
2021/07/12 09:12:11;;;;;;;4.90;4.60;;;31.60;46.40;;;;;;5073681;28;20898;-70
2021/07/12 09:14:40;;;;;;;5.03;4.63;;;31.80;46.20;;;;;;5073744;28;20898;-70
2021/07/12 09:17:08;;;;;;;5.20;4.80;;;31.90;46.40;;;;;;5073865;28;20444;-70
2021/07/12 09:19:36;;;;;;;6.93;4.60;;;32.00;46.10;;;;;;5073686;28;20440;-70
2021/07/12 09:22:05;;;;;;;7.30;5.10;;;32.30;45.40;;;;;;5073877;28;20444;-71
2021/07/12 09:24:38;;;;;;;6.00;5.40;;;32.40;45.00;;;;;;5073381;28;20822;-71
2021/07/12 09:27:12;;;;;;;4.70;4.40;;;32.60;43.40;;;;;;5073758;28;20428;-70
2021/07/12 09:29:40;;;;;;;5.63;4.20;;;32.70;43.50;;;;;;5073808;28;20452;-70
2021/07/12 09:32:09;;;;;;;4.33;3.93;;;32.80;43.00;;;;;;5073971;28;20448;-70
2021/07/12 09:34:37;;;;;;;4.17;3.77;;;32.90;42.40;;;;;;5073186;28;21001;-70
2021/07/12 09:37:05;;;;;;;4.40;4.10;;;33.10;41.40;;;;;;5073396;28;20951;-69
2021/07/12 09:39:37;;;;;;;4.77;4.47;;;33.10;40.50;;;;;;5073350;28;20511;-70
2021/07/12 09:42:12;;;;;;;3.90;3.60;;;33.10;40.50;;;;;;5073569;28;20486;-70
2021/07/12 09:44:41;;;;;;;5.20;3.63;;;33.20;41.10;;;;;;5073689;28;20460;-70
2021/07/12 09:47:11;;;;;;;4.27;3.97;;;33.30;40.70;;;;;;5074042;28;20490;-69
2021/07/12 09:49:38;;;;;;;3.90;3.60;;;33.40;40.60;;;;;;5073427;28;20452;-69
2021/07/12 09:52:08;;;;;;;3.60;3.40;;;33.40;39.70;;;;;;5073422;28;20444;-70
2021/07/12 09:54:37;;;;;;;4.13;3.30;;;33.50;39.40;;;;;;5073108;28;21039;-69
2021/07/12 09:57:11;;;;;;;3.70;3.50;;;33.80;39.10;;;;;;5073428;28;20535;-69
2021/07/12 09:59:52;;;;;;;3.93;3.63;;;34.00;38.70;;;;;;5073421;28;20427;-70
2021/07/12 10:02:21;;;;;;;3.77;3.57;;;34.10;37.80;;;;;;5073164;28;20425;-71
2021/07/12 10:04:49;;;;;;;4.17;3.87;;;34.00;38.30;;;;;;5073324;28;20464;-70
2021/07/12 10:07:16;;;;;;;4.60;4.30;;;33.90;38.10;;;;;;5073347;28;20428;-70
2021/07/12 10:09:43;;;;;;;4.30;3.83;;;33.70;38.20;;;;;;5073503;28;20428;-72
2021/07/12 10:12:12;;;;;;;3.37;3.07;;;33.50;39.00;;;;;;5073388;28;20432;-70
2021/07/12 10:14:39;;;;;;;3.80;3.60;;;33.60;39.10;;;;;;5072838;28;20490;-70
2021/07/12 10:17:09;;;;;;;3.53;3.30;;;33.60;38.70;;;;;;5073226;28;20486;-71
2021/07/12 10:19:36;;;;;;;4.03;3.70;;;33.70;38.40;;;;;;5077346;28;20527;-72
2021/07/12 10:22:03;;;;;;;3.97;3.67;;;33.80;38.40;;;;;;5077257;28;20443;-70
2021/07/12 10:24:39;;;;;;;3.70;3.50;;;33.90;38.10;;;;;;5077174;28;20467;-70
2021/07/12 10:27:07;;;;;;;4.10;3.80;;;34.20;38.30;;;;;;5076788;28;20901;-70
2021/07/12 10:29:37;;;;;;;3.53;3.33;;;34.40;37.70;;;;;;5077194;28;20439;-70
2021/07/12 10:32:14;;;;;;;3.00;2.80;;;34.60;36.80;;;;;;5077086;28;20424;-70
2021/07/12 10:34:45;;;;;;;3.20;3.00;;;34.90;36.30;;;;;;5076897;28;20515;-70
2021/07/12 10:37:28;;;;;;;3.37;3.17;;;35.10;35.30;;;;;;5076598;28;20937;-70
2021/07/12 10:40:08;;;;;;;3.90;3.60;;;35.20;34.40;;;;;;5076437;28;20920;-70
2021/07/12 10:42:53;;;;;;;3.30;3.10;;;35.10;33.20;;;;;;5076384;28;20909;-70
2021/07/12 10:45:39;;;;;;;3.57;3.37;;;34.90;33.00;;;;;;5076810;28;20428;-70
2021/07/12 10:48:09;;;;;;;3.07;2.87;;;34.80;35.10;;;;;;5077139;28;20446;-71
2021/07/12 10:50:55;;;;;;;4.20;3.20;;;34.80;35.60;;;;;;5076637;28;20460;-70
2021/07/12 10:54:00;;;;;;;3.20;3.00;;;34.70;35.30;;;;;;5076198;28;21004;-72
2021/07/12 10:56:45;;;;;;;3.90;3.20;;;34.60;35.50;;;;;;5076615;28;20408;-70
2021/07/12 10:59:30;;;;;;;3.03;2.83;;;34.40;36.10;;;;;;5076787;28;20440;-72
2021/07/12 11:01:59;;;;;;;3.80;3.50;;;34.20;36.30;;;;;;5076540;28;20506;-72
2021/07/12 11:04:33;;;;;;;3.57;3.27;;;34.20;36.20;;;;;;5076293;28;20464;-70
2021/07/12 11:07:01;;;;;;;2.93;2.73;;;34.30;35.80;;;;;;5076328;28;20447;-70
2021/07/12 11:09:54;;;;;;;3.13;2.87;;;34.40;35.30;;;;;;5076279;28;20880;-70
2021/07/12 11:12:52;;;;;;;2.80;2.60;;;34.60;35.10;;;;;;5076286;28;20485;-70
2021/07/12 11:15:39;;;;;;;2.97;2.77;;;35.10;34.90;;;;;;5076978;28;20495;-71
2021/07/12 11:18:09;;;;;;;2.63;2.43;;;35.70;33.60;;;;;;5076494;28;20475;-72
2021/07/12 11:20:59;;;;;;;2.60;2.50;;;36.20;32.70;;;;;;5076611;28;20428;-72
2021/07/12 11:23:40;;;;;;;2.50;2.40;;;36.80;32.20;;;;;;5076144;28;20229;-72
2021/07/12 11:26:51;;;;;;;2.77;2.57;;;37.10;30.00;;;;;;5076153;28;20250;-72
2021/07/12 11:29:29;;;;;;;2.53;2.43;;;37.10;30.10;;;;;;5075689;28;20467;-72
2021/07/12 11:31:58;;;;;;;2.30;2.10;;;37.00;30.00;;;;;;5076017;28;20432;-72
2021/07/12 11:34:28;;;;;;;2.53;2.30;;;36.90;30.10;;;;;;5075792;28;20312;-72
2021/07/12 11:36:58;;;;;;;2.80;2.60;;;36.80;30.40;;;;;;5075927;28;20208;-72
2021/07/12 11:39:26;;;;;;;6.30;2.97;;;36.70;30.30;;;;;;5075623;28;20898;-72
2021/07/12 11:41:54;;;;;;;2.90;2.57;;;36.90;30.70;;;;;;5075719;28;20440;-72
2021/07/12 11:44:21;;;;;;;3.13;2.83;;;37.00;30.00;;;;;;5075703;28;20225;-72
2021/07/12 11:46:49;;;;;;;3.10;2.90;;;37.20;30.80;;;;;;5075332;28;20671;-72
2021/07/12 11:49:18;;;;;;;2.70;2.50;;;37.60;30.90;;;;;;5075524;28;20206;-72
2021/07/12 11:51:51;;;;;;;2.60;2.40;;;38.10;30.50;;;;;;5075956;28;20189;-72
2021/07/12 11:54:20;;;;;;;2.63;2.43;;;38.60;30.00;;;;;;5075484;28;20283;-72
2021/07/12 11:56:58;;;;;;;2.50;2.30;;;38.90;29.20;;;;;;5075526;28;20206;-72
2021/07/12 11:59:27;;;;;;;2.20;2.00;;;39.10;27.30;;;;;;5075712;28;20197;-73
2021/07/12 12:01:58;;;;;;;2.30;2.10;;;38.90;27.70;;;;;;5075173;28;20652;-72
2021/07/12 12:04:25;;;;;;;4.35;2.85;;;38.70;27.30;;;;;;5075383;28;20220;-73
2021/07/12 12:06:53;;;;;;;2.38;2.17;;;38.50;27.70;;;;;;5075307;28;20202;-72
2021/07/12 12:09:20;;;;;;;2.65;2.42;;;38.40;28.60;;;;;;5075238;28;20622;-72
2021/07/12 12:11:48;;;;;;;2.60;2.40;;;38.20;28.70;;;;;;5075519;28;20197;-72
2021/07/12 12:14:23;;;;;;;2.27;2.07;;;37.90;28.30;;;;;;5075050;28;20270;-72
2021/07/12 12:16:49;;;;;;;2.60;2.40;;;37.50;29.50;;;;;;5074831;28;20283;-72
2021/07/12 12:19:16;;;;;;;2.70;2.50;;;37.10;30.00;;;;;;5075072;28;20206;-72
2021/07/12 12:21:43;;;;;;;2.30;2.13;;;36.70;30.10;;;;;;5074999;28;20201;-72
2021/07/12 12:24:11;;;;;;;2.60;2.40;;;36.20;30.70;;;;;;5075124;28;20463;-72
2021/07/12 12:26:38;;;;;;;3.73;2.80;;;35.60;32.30;;;;;;5074892;28;20440;-72
2021/07/12 12:29:06;;;;;;;2.80;2.60;;;35.10;32.50;;;;;;5074842;28;20428;-71
2021/07/12 12:31:34;;;;;;;3.20;3.00;;;34.50;33.50;;;;;;5074924;28;20436;-72
2021/07/12 12:34:02;;;;;;;2.87;2.67;;;34.00;34.20;;;;;;5074631;28;20535;-71
2021/07/12 12:36:32;;;;;;;2.97;2.77;;;33.60;35.90;;;;;;5074636;28;20447;-71
2021/07/12 12:39:00;;;;;;;3.30;3.00;;;33.40;36.40;;;;;;5074722;28;20430;-72
2021/07/12 12:41:30;;;;;;;5.63;3.10;;;33.30;36.70;;;;;;5074272;28;20435;-71
2021/07/12 12:44:05;;;;;;;3.17;2.97;;;33.10;36.30;;;;;;5074609;28;20469;-72
2021/07/12 12:46:32;;;;;;;3.30;3.10;;;32.90;37.40;;;;;;5074577;28;20432;-72
2021/07/12 12:48:59;;;;;;;3.33;3.13;;;32.70;37.90;;;;;;5074029;28;20435;-72
2021/07/12 12:51:30;;;;;;;3.50;3.30;;;32.40;38.80;;;;;;5074406;28;20435;-72
2021/07/12 12:54:02;;;;;;;3.07;2.87;;;32.40;38.90;;;;;;5074583;28;20537;-71
2021/07/12 12:56:30;;;;;;;3.13;2.93;;;32.30;39.30;;;;;;5074356;28;20865;-72